createdAt,value
2019-03-27T00:00:20.826Z,21.3
2019-03-27T00:01:10.671Z,21.3
2019-03-27T00:02:00.656Z,21.3
2019-03-27T00:02:51.349Z,21.3
2019-03-27T00:03:41.629Z,21.3
2019-03-27T00:04:31.358Z,21.3
2019-03-27T00:05:21.428Z,21.3
2019-03-27T00:06:11.219Z,21.2
2019-03-27T00:07:01.569Z,21.2
2019-03-27T00:07:50.518Z,21.2
2019-03-27T00:08:41.410Z,21.2
2019-03-27T00:10:21.828Z,21.2
2019-03-27T00:11:11.849Z,21.2
2019-03-27T00:12:02.271Z,21.3
2019-03-27T00:12:52.358Z,21.3
2019-03-27T00:13:42.623Z,21.4
2019-03-27T00:14:31.878Z,21.4
2019-03-27T00:15:22.720Z,21.4
2019-03-27T00:16:11.947Z,21.5
2019-03-27T00:17:02.586Z,21.6
2019-03-27T00:17:52.635Z,21.6
2019-03-27T00:18:42.948Z,21.6
2019-03-27T00:19:32.857Z,21.7
2019-03-27T00:20:22.341Z,21.6
2019-03-27T00:21:12.458Z,21.8
2019-03-27T00:22:03.200Z,21.8
2019-03-27T00:22:52.805Z,21.8
2019-03-27T00:23:43.290Z,21.8
2019-03-27T00:24:33.200Z,21.8
2019-03-27T00:25:23.213Z,21.8
2019-03-27T00:26:12.685Z,21.8
2019-03-27T00:27:03.564Z,21.8
2019-03-27T00:27:53.343Z,21.8
2019-03-27T00:28:43.724Z,21.8
2019-03-27T00:29:33.548Z,21.8
2019-03-27T00:30:23.562Z,21.8
2019-03-27T00:31:16.547Z,21.8
2019-03-27T00:32:03.201Z,21.7
2019-03-27T00:32:53.982Z,21.7
2019-03-27T00:33:43.752Z,21.7
2019-03-27T00:34:33.832Z,21.6
2019-03-27T00:35:23.347Z,21.6
2019-03-27T00:36:13.400Z,21.6
2019-03-27T00:37:03.259Z,21.6
2019-03-27T00:37:53.802Z,21.6
2019-03-27T00:38:44.400Z,21.6
2019-03-27T00:39:33.107Z,21.5
2019-03-27T00:40:23.399Z,21.5
2019-03-27T00:41:14.663Z,21.5
2019-03-27T00:42:04.143Z,21.5
2019-03-27T00:42:54.430Z,21.4
2019-03-27T00:43:43.923Z,21.4
2019-03-27T00:44:33.999Z,21.4
2019-03-27T00:45:34.072Z,21.4
2019-03-27T00:46:14.099Z,21.4
2019-03-27T00:47:04.172Z,21.4
2019-03-27T00:47:55.103Z,21.4
2019-03-27T00:48:44.856Z,21.4
2019-03-27T00:49:34.418Z,21.4
2019-03-27T00:50:24.406Z,21.4
2019-03-27T00:51:15.443Z,21.3
2019-03-27T00:52:05.418Z,21.3
2019-03-27T00:52:55.236Z,21.3
2019-03-27T00:53:44.946Z,21.3
2019-03-27T00:54:34.711Z,21.3
2019-03-27T00:55:25.053Z,21.3
2019-03-27T00:56:14.921Z,21.3
2019-03-27T00:57:05.823Z,21.3
2019-03-27T00:57:55.261Z,21.3
2019-03-27T00:58:45.333Z,21.2
2019-03-27T00:59:35.538Z,21.2
2019-03-27T01:00:25.523Z,21.2
2019-03-27T01:01:15.513Z,21.2
2019-03-27T01:02:05.318Z,21.3
2019-03-27T01:02:55.605Z,21.3
2019-03-27T01:03:45.718Z,21.3
2019-03-27T01:04:35.518Z,21.4
2019-03-27T01:05:25.525Z,21.4
2019-03-27T01:06:16.163Z,21.5
2019-03-27T01:07:06.550Z,21.6
2019-03-27T01:07:55.718Z,21.6
2019-03-27T01:08:46.587Z,21.6
2019-03-27T01:09:36.105Z,21.7
2019-03-27T01:10:26.436Z,21.8
2019-03-27T01:11:16.762Z,21.8
2019-03-27T01:12:06.022Z,21.8
2019-03-27T01:12:56.317Z,21.8
2019-03-27T01:13:46.431Z,21.8
2019-03-27T01:14:37.057Z,21.9
2019-03-27T01:15:40.940Z,21.9
2019-03-27T01:16:16.677Z,21.9
2019-03-27T01:17:05.852Z,21.9
2019-03-27T01:17:57.229Z,21.9
2019-03-27T01:18:46.740Z,21.9
2019-03-27T01:19:36.872Z,21.9
2019-03-27T01:20:26.877Z,21.8
2019-03-27T01:21:17.202Z,21.8
2019-03-27T01:22:07.026Z,21.8
2019-03-27T01:22:57.036Z,21.8
2019-03-27T01:23:47.492Z,21.8
2019-03-27T01:24:36.904Z,21.8
2019-03-27T01:25:27.540Z,21.7
2019-03-27T01:26:17.856Z,21.7
2019-03-27T01:27:07.702Z,21.7
2019-03-27T01:27:57.294Z,21.6
2019-03-27T01:28:47.759Z,21.6
2019-03-27T01:29:37.869Z,21.6
2019-03-27T01:30:27.909Z,21.6
2019-03-27T01:31:17.928Z,21.6
2019-03-27T01:32:07.701Z,21.6
2019-03-27T01:32:58.330Z,21.6
2019-03-27T01:33:47.551Z,21.5
2019-03-27T01:34:38.501Z,21.5
2019-03-27T01:35:28.538Z,21.5
2019-03-27T01:36:18.081Z,21.5
2019-03-27T01:37:08.626Z,21.4
2019-03-27T01:37:57.855Z,21.4
2019-03-27T01:38:47.078Z,21.4
2019-03-27T01:39:38.578Z,21.4
2019-03-27T01:40:28.150Z,21.4
2019-03-27T01:41:18.177Z,21.4
2019-03-27T01:42:08.988Z,21.4
2019-03-27T01:42:58.773Z,21.4
2019-03-27T01:43:48.576Z,21.3
2019-03-27T01:44:39.170Z,21.3
2019-03-27T01:45:28.406Z,21.3
2019-03-27T01:46:18.728Z,21.3
2019-03-27T01:47:08.580Z,21.3
2019-03-27T01:47:59.125Z,21.3
2019-03-27T01:48:48.893Z,21.3
2019-03-27T01:49:39.265Z,21.3
2019-03-27T01:50:28.505Z,21.3
2019-03-27T01:51:19.430Z,21.3
2019-03-27T01:52:12.833Z,21.3
2019-03-27T01:52:58.680Z,21.3
2019-03-27T01:53:49.568Z,21.3
2019-03-27T01:54:39.912Z,21.4
2019-03-27T01:55:29.390Z,21.4
2019-03-27T01:56:19.822Z,21.5
2019-03-27T01:57:09.274Z,21.6
2019-03-27T01:57:59.297Z,21.6
2019-03-27T01:58:49.916Z,21.6
2019-03-27T01:59:40.047Z,21.7
2019-03-27T02:00:29.749Z,21.8
2019-03-27T02:01:19.839Z,21.8
2019-03-27T02:02:10.177Z,21.8
2019-03-27T02:03:00.257Z,21.9
2019-03-27T02:03:50.531Z,21.9
2019-03-27T02:04:40.399Z,21.9
2019-03-27T02:05:30.131Z,21.9
2019-03-27T02:06:20.172Z,21.9
2019-03-27T02:07:10.801Z,21.9
2019-03-27T02:08:00.926Z,21.9
2019-03-27T02:08:50.711Z,21.9
2019-03-27T02:09:39.601Z,21.9
2019-03-27T02:10:31.111Z,21.9
2019-03-27T02:11:20.849Z,21.9
2019-03-27T02:12:10.883Z,21.8
2019-03-27T02:13:00.642Z,21.8
2019-03-27T02:13:51.081Z,21.8
2019-03-27T02:14:41.116Z,21.8
2019-03-27T02:15:30.591Z,21.8
2019-03-27T02:16:20.619Z,21.7
2019-03-27T02:17:11.534Z,21.6
2019-03-27T02:18:01.028Z,21.6
2019-03-27T02:18:51.145Z,21.6
2019-03-27T02:19:40.904Z,21.6
2019-03-27T02:20:31.194Z,21.6
2019-03-27T02:21:21.011Z,21.6
2019-03-27T02:22:11.381Z,21.6
2019-03-27T02:23:01.386Z,21.6
2019-03-27T02:23:52.017Z,21.5
2019-03-27T02:24:42.059Z,21.5
2019-03-27T02:25:31.560Z,21.5
2019-03-27T02:26:21.701Z,21.5
2019-03-27T02:27:12.078Z,21.4
2019-03-27T02:28:00.913Z,21.4
2019-03-27T02:28:51.813Z,21.4
2019-03-27T02:29:42.170Z,21.4
2019-03-27T02:30:32.143Z,21.4
2019-03-27T02:31:22.407Z,21.4
2019-03-27T02:32:12.447Z,21.4
2019-03-27T02:33:02.871Z,21.3
2019-03-27T02:33:52.451Z,21.3
2019-03-27T02:34:42.056Z,21.3
2019-03-27T02:35:32.576Z,21.3
2019-03-27T02:36:22.733Z,21.3
2019-03-27T02:37:12.554Z,21.3
2019-03-27T02:38:02.901Z,21.3
2019-03-27T02:38:53.014Z,21.3
2019-03-27T02:39:42.758Z,21.3
2019-03-27T02:40:33.373Z,21.3
2019-03-27T02:41:22.925Z,21.3
2019-03-27T02:42:12.070Z,21.3
2019-03-27T02:43:02.965Z,21.3
2019-03-27T02:43:53.649Z,21.3
2019-03-27T02:44:43.177Z,21.4
2019-03-27T02:45:33.395Z,21.4
2019-03-27T02:46:32.319Z,21.4
2019-03-27T02:47:13.792Z,21.5
2019-03-27T02:48:03.841Z,21.6
2019-03-27T02:48:52.860Z,21.6
2019-03-27T02:49:44.137Z,21.7
2019-03-27T02:50:33.925Z,21.8
2019-03-27T02:51:23.820Z,21.8
2019-03-27T02:52:13.935Z,21.8
2019-03-27T02:53:04.322Z,21.9
2019-03-27T02:53:54.410Z,21.9
2019-03-27T02:54:43.775Z,21.9
2019-03-27T02:55:34.094Z,21.9
2019-03-27T02:56:24.492Z,22
2019-03-27T02:57:13.667Z,21.9
2019-03-27T02:58:03.501Z,21.9
2019-03-27T02:58:54.074Z,21.9
2019-03-27T02:59:44.386Z,21.9
2019-03-27T03:00:34.710Z,21.9
2019-03-27T03:01:24.269Z,21.9
2019-03-27T03:02:14.499Z,21.9
2019-03-27T03:03:03.586Z,21.8
2019-03-27T03:03:54.799Z,21.8
2019-03-27T03:07:24.947Z,21.7
2019-03-27T03:08:15.359Z,21.7
2019-03-27T03:09:05.156Z,21.7
2019-03-27T03:09:56.074Z,21.6
2019-03-27T03:10:50.356Z,21.6
2019-03-27T03:11:35.826Z,21.6
2019-03-27T03:12:25.971Z,21.6
2019-03-27T03:13:16.191Z,21.6
2019-03-27T03:14:05.733Z,21.6
2019-03-27T03:14:55.791Z,21.5
2019-03-27T03:15:45.845Z,21.5
2019-03-27T03:16:50.025Z,21.5
2019-03-27T03:17:26.236Z,21.4
2019-03-27T03:18:16.580Z,21.4
2019-03-27T03:19:06.161Z,21.4
2019-03-27T03:19:56.062Z,21.4
2019-03-27T03:20:46.428Z,21.4
2019-03-27T03:21:36.208Z,21.4
2019-03-27T03:22:26.372Z,21.4
2019-03-27T03:23:16.873Z,21.4
2019-03-27T03:24:06.628Z,21.4
2019-03-27T03:24:56.430Z,21.4
2019-03-27T03:25:46.597Z,21.3
2019-03-27T03:26:37.292Z,21.3
2019-03-27T03:27:27.008Z,21.3
2019-03-27T03:28:16.792Z,21.3
2019-03-27T03:29:06.801Z,21.3
2019-03-27T03:29:57.489Z,21.3
2019-03-27T03:30:47.470Z,21.3
2019-03-27T03:31:37.773Z,21.3
2019-03-27T03:32:27.510Z,21.3
2019-03-27T03:33:17.519Z,21.3
2019-03-27T03:34:08.246Z,21.4
2019-03-27T03:34:57.354Z,21.4
2019-03-27T03:35:47.568Z,21.4
2019-03-27T03:36:37.711Z,21.5
2019-03-27T03:37:27.960Z,21.6
2019-03-27T03:38:17.835Z,21.6
2019-03-27T03:39:07.753Z,21.6
2019-03-27T03:39:57.332Z,21.6
2019-03-27T03:40:48.182Z,21.6
2019-03-27T03:41:38.224Z,21.6
2019-03-27T03:42:27.784Z,21.6
2019-03-27T03:43:18.071Z,21.7
2019-03-27T03:44:08.168Z,21.7
2019-03-27T03:44:58.513Z,21.8
2019-03-27T03:45:47.712Z,21.8
2019-03-27T03:46:37.219Z,21.8
2019-03-27T03:47:28.662Z,21.8
2019-03-27T03:48:18.516Z,21.9
2019-03-27T03:49:08.512Z,21.9
2019-03-27T03:49:58.725Z,21.9
2019-03-27T03:50:49.316Z,21.9
2019-03-27T03:51:38.672Z,22
2019-03-27T03:52:28.182Z,22
2019-03-27T03:53:19.045Z,22.1
2019-03-27T03:54:08.946Z,22.1
2019-03-27T03:54:59.299Z,22
2019-03-27T03:55:49.234Z,22
2019-03-27T03:56:39.041Z,22
2019-03-27T03:57:29.117Z,22
2019-03-27T03:58:19.668Z,21.9
2019-03-27T03:59:09.271Z,21.9
2019-03-27T03:59:59.344Z,21.9
2019-03-27T04:00:49.151Z,21.9
2019-03-27T04:01:39.726Z,21.8
2019-03-27T04:02:28.802Z,21.8
2019-03-27T04:03:19.601Z,21.8
2019-03-27T04:04:09.638Z,21.8
2019-03-27T04:05:00.003Z,21.8
2019-03-27T04:05:49.828Z,21.8
2019-03-27T04:06:39.798Z,21.8
2019-03-27T04:07:29.625Z,21.8
2019-03-27T04:08:19.980Z,21.7
2019-03-27T04:09:09.632Z,21.7
2019-03-27T04:10:00.601Z,21.6
2019-03-27T04:10:50.682Z,21.6
2019-03-27T04:11:39.903Z,21.6
2019-03-27T04:12:29.597Z,21.6
2019-03-27T04:13:20.415Z,21.6
2019-03-27T04:14:10.347Z,21.6
2019-03-27T04:14:59.912Z,21.5
2019-03-27T04:15:50.450Z,21.5
2019-03-27T04:16:40.568Z,21.5
2019-03-27T04:17:30.774Z,21.4
2019-03-27T04:18:20.664Z,21.4
2019-03-27T04:19:09.567Z,21.4
2019-03-27T04:20:00.472Z,21.4
2019-03-27T04:20:50.856Z,21.4
2019-03-27T04:21:41.247Z,21.4
2019-03-27T04:22:30.637Z,21.3
2019-03-27T04:23:21.032Z,21.3
2019-03-27T04:24:10.437Z,21.3
2019-03-27T04:25:01.295Z,21.3
2019-03-27T04:26:17.829Z,21.3
2019-03-27T04:26:40.750Z,21.3
2019-03-27T04:27:31.307Z,21.4
2019-03-27T04:28:21.629Z,21.4
2019-03-27T04:29:11.673Z,21.4
2019-03-27T04:30:01.126Z,21.5
2019-03-27T04:30:51.542Z,21.5
2019-03-27T04:31:41.837Z,21.6
2019-03-27T04:32:31.659Z,21.6
2019-03-27T04:33:21.430Z,21.7
2019-03-27T04:34:11.273Z,21.8
2019-03-27T04:35:01.627Z,21.8
2019-03-27T04:35:52.120Z,21.9
2019-03-27T04:36:41.656Z,21.9
2019-03-27T04:37:31.985Z,21.9
2019-03-27T04:38:22.052Z,22
2019-03-27T04:39:12.086Z,22.1
2019-03-27T04:40:02.408Z,22.1
2019-03-27T04:40:51.711Z,22.1
2019-03-27T04:41:41.728Z,22.1
2019-03-27T04:42:31.812Z,22
2019-03-27T04:43:22.705Z,22
2019-03-27T04:44:12.720Z,22
2019-03-27T04:45:02.543Z,22
2019-03-27T04:45:52.001Z,21.9
2019-03-27T04:46:42.321Z,21.9
2019-03-27T04:47:39.646Z,21.9
2019-03-27T04:48:22.461Z,21.9
2019-03-27T04:49:15.145Z,21.8
2019-03-27T04:50:02.915Z,21.8
2019-03-27T04:50:53.389Z,21.8
2019-03-27T04:51:42.720Z,21.8
2019-03-27T04:52:32.968Z,21.8
2019-03-27T04:53:23.070Z,21.8
2019-03-27T04:54:12.811Z,21.7
2019-03-27T04:55:03.763Z,21.7
2019-03-27T04:55:52.945Z,21.6
2019-03-27T04:56:43.572Z,21.6
2019-03-27T04:57:33.388Z,21.6
2019-03-27T04:58:23.797Z,21.5
2019-03-27T04:59:13.556Z,21.4
2019-03-27T05:00:03.235Z,21.3
2019-03-27T05:00:53.721Z,21.2
2019-03-27T05:02:34.013Z,21
2019-03-27T05:03:23.245Z,20.9
2019-03-27T05:04:14.181Z,20.9
2019-03-27T05:05:04.100Z,20.8
2019-03-27T05:05:52.879Z,20.8
2019-03-27T05:06:43.746Z,20.7
2019-03-27T05:07:34.072Z,20.7
2019-03-27T05:08:23.117Z,20.6
2019-03-27T05:09:14.514Z,20.6
2019-03-27T05:10:04.354Z,20.6
2019-03-27T05:10:53.856Z,20.6
2019-03-27T05:11:44.118Z,20.6
2019-03-27T05:12:34.794Z,20.6
2019-03-27T05:13:24.226Z,20.6
2019-03-27T05:14:14.554Z,20.6
2019-03-27T05:15:04.599Z,20.6
2019-03-27T05:15:54.741Z,20.6
2019-03-27T05:16:43.921Z,20.6
2019-03-27T05:17:48.798Z,20.6
2019-03-27T05:18:24.287Z,20.7
2019-03-27T05:19:14.408Z,20.7
2019-03-27T05:20:04.681Z,20.7
2019-03-27T05:20:53.136Z,20.8
2019-03-27T05:21:45.359Z,20.8
2019-03-27T05:22:34.927Z,20.8
2019-03-27T05:23:25.295Z,20.9
2019-03-27T05:24:15.273Z,20.9
2019-03-27T05:25:05.148Z,20.9
2019-03-27T05:25:55.403Z,21
2019-03-27T05:26:45.166Z,21
2019-03-27T05:27:38.908Z,21
2019-03-27T05:28:25.841Z,21.1
2019-03-27T05:29:15.366Z,21.1
2019-03-27T05:30:56.066Z,21.2
2019-03-27T05:31:45.555Z,21.3
2019-03-27T05:32:35.870Z,21.3
2019-03-27T05:33:26.205Z,21.3
2019-03-27T05:34:15.993Z,21.3
2019-03-27T05:35:06.258Z,21.4
2019-03-27T05:35:56.443Z,21.4
2019-03-27T05:36:46.197Z,21.4
2019-03-27T05:37:36.508Z,21.4
2019-03-27T05:38:25.447Z,21.4
2019-03-27T05:39:19.982Z,21.3
2019-03-27T05:40:05.990Z,21.4
2019-03-27T05:40:56.480Z,21.3
2019-03-27T05:41:46.815Z,21.3
2019-03-27T05:42:36.577Z,21.3
2019-03-27T05:43:26.927Z,21.3
2019-03-27T05:44:16.524Z,21.3
2019-03-27T05:45:06.434Z,21.3
2019-03-27T05:45:56.586Z,21.3
2019-03-27T05:46:46.948Z,21.3
2019-03-27T05:47:36.458Z,21.3
2019-03-27T05:48:27.101Z,21.3
2019-03-27T05:49:17.094Z,21.3
2019-03-27T05:50:07.142Z,21.3
2019-03-27T05:50:56.949Z,21.3
2019-03-27T05:51:46.806Z,21.3
2019-03-27T05:52:37.056Z,21.3
2019-03-27T05:53:27.659Z,21.3
2019-03-27T05:54:16.874Z,21.3
2019-03-27T05:55:06.420Z,21.3
2019-03-27T05:56:47.717Z,21.1
2019-03-27T05:57:37.950Z,21.1
2019-03-27T05:58:28.109Z,21.1
2019-03-27T05:59:18.114Z,21.1
2019-03-27T06:00:08.225Z,21
2019-03-27T06:00:57.661Z,21
2019-03-27T06:01:47.779Z,20.9
2019-03-27T06:02:38.043Z,20.9
2019-03-27T06:05:25.263Z,21
2019-03-27T06:06:15.626Z,21
2019-03-27T06:07:05.411Z,21
2019-03-27T06:07:55.761Z,21
2019-03-27T06:08:44.428Z,21.1
2019-03-27T06:09:35.416Z,21.1
2019-03-27T06:10:25.106Z,21.1
2019-03-27T06:11:15.471Z,21.1
2019-03-27T06:12:05.236Z,21.1
2019-03-27T06:12:55.561Z,21.1
2019-03-27T06:13:46.255Z,21.1
2019-03-27T06:14:35.146Z,21
2019-03-27T06:15:25.688Z,21
2019-03-27T06:16:31.082Z,20.9
2019-03-27T06:17:05.963Z,20.9
2019-03-27T06:17:56.257Z,20.9
2019-03-27T06:18:46.007Z,20.9
2019-03-27T06:19:36.570Z,20.9
2019-03-27T06:20:26.410Z,20.9
2019-03-27T06:21:15.855Z,20.9
2019-03-27T06:22:05.924Z,20.9
2019-03-27T06:22:55.467Z,20.9
2019-03-27T06:23:46.967Z,21
2019-03-27T06:24:36.672Z,21
2019-03-27T06:25:26.621Z,21.1
2019-03-27T06:28:46.723Z,21.2
2019-03-27T06:29:37.006Z,21.3
2019-03-27T06:30:27.407Z,21.3
2019-03-27T06:31:16.913Z,21.3
2019-03-27T06:32:06.418Z,21.3
2019-03-27T06:32:56.977Z,21.3
2019-03-27T06:33:47.035Z,21.3
2019-03-27T06:34:52.076Z,21.2
2019-03-27T06:35:27.215Z,21.2
2019-03-27T06:36:17.015Z,21.2
2019-03-27T06:37:07.072Z,21.2
2019-03-27T06:37:57.631Z,21.2
2019-03-27T06:38:47.394Z,21.2
2019-03-27T06:39:37.736Z,21.2
2019-03-27T06:45:28.419Z,21.2
2019-03-27T06:47:08.623Z,21.2
2019-03-27T06:51:18.536Z,21.2
2019-03-27T06:52:58.693Z,21.2
2019-03-27T06:57:09.392Z,21.1
2019-03-27T06:57:59.638Z,21.1
2019-03-27T06:59:01.916Z,21.1
2019-03-27T06:59:39.445Z,21.1
2019-03-27T07:00:28.714Z,21.1
2019-03-27T07:01:19.583Z,21.1
2019-03-27T07:02:09.453Z,21.1
2019-03-27T07:02:59.470Z,21.1
2019-03-27T07:05:57.125Z,21.1
2019-03-27T07:07:00.881Z,21
2019-03-27T07:07:18.483Z,21
2019-03-27T07:08:07.770Z,21
2019-03-27T07:08:58.865Z,21.1
2019-03-27T07:09:49.458Z,21.1
2019-03-27T07:12:28.080Z,21.2
2019-03-27T07:13:07.940Z,21.3
2019-03-27T07:13:58.701Z,21.3
2019-03-27T07:14:48.547Z,21.3
2019-03-27T07:15:41.909Z,21.3
2019-03-27T07:16:27.572Z,21.3
2019-03-27T07:17:18.934Z,21.3
2019-03-27T07:18:08.984Z,21.3
2019-03-27T07:18:59.310Z,21.4
2019-03-27T07:20:04.472Z,21.4
2019-03-27T07:20:53.277Z,21.4
2019-03-27T07:21:29.480Z,21.4
2019-03-27T07:22:19.227Z,21.4
2019-03-27T07:23:09.624Z,21.4
2019-03-27T07:23:59.394Z,21.4
2019-03-27T07:24:48.955Z,21.4
2019-03-27T07:25:39.507Z,21.4
2019-03-27T07:26:29.021Z,21.4
2019-03-27T07:27:19.347Z,21.4
2019-03-27T07:28:09.220Z,21.4
2019-03-27T07:28:58.966Z,21.4
2019-03-27T07:29:49.587Z,21.4
2019-03-27T07:30:39.616Z,21.4
2019-03-27T07:31:30.267Z,21.4
2019-03-27T07:32:19.756Z,21.4
2019-03-27T07:33:09.819Z,21.4
2019-03-27T07:34:14.855Z,21.4
2019-03-27T07:34:50.007Z,21.3
2019-03-27T07:35:39.986Z,21.4
2019-03-27T07:36:30.104Z,21.3
2019-03-27T07:37:20.138Z,21.3
2019-03-27T07:38:09.886Z,21.3
2019-03-27T07:39:15.461Z,21.3
2019-03-27T07:39:50.200Z,21.3
2019-03-27T07:40:40.886Z,21.3
2019-03-27T07:41:30.614Z,21.3
2019-03-27T07:42:20.741Z,21.3
2019-03-27T07:43:11.087Z,21.2
2019-03-27T07:44:00.278Z,21.2
2019-03-27T07:44:50.932Z,21.2
2019-03-27T07:45:40.688Z,21.2
2019-03-27T07:53:11.230Z,21.2
2019-03-27T07:54:01.318Z,21.3
2019-03-27T07:54:51.202Z,21.3
2019-03-27T07:55:41.785Z,21.3
2019-03-27T07:56:32.065Z,21.3
2019-03-27T07:57:21.831Z,21.3
2019-03-27T07:58:12.153Z,21.3
2019-03-27T07:59:04.802Z,21.3
2019-03-27T07:59:50.922Z,21.3
2019-03-27T08:00:42.438Z,21.4
2019-03-27T08:01:32.113Z,21.4
2019-03-27T08:02:22.428Z,21.3
2019-03-27T08:03:12.536Z,21.3
2019-03-27T08:04:01.726Z,21.3
2019-03-27T08:04:50.686Z,21.3
2019-03-27T08:05:42.136Z,21.3
2019-03-27T08:06:32.177Z,21.3
2019-03-27T08:07:33.944Z,21.3
2019-03-27T08:08:12.620Z,21.3
2019-03-27T08:09:02.125Z,21.3
2019-03-27T08:09:53.066Z,21.3
2019-03-27T08:10:41.661Z,21.3
2019-03-27T08:11:35.498Z,21.3
2019-03-27T08:12:22.910Z,21.3
2019-03-27T08:13:12.006Z,21.3
2019-03-27T08:14:02.805Z,21.2
2019-03-27T08:14:52.947Z,21.2
2019-03-27T08:15:46.541Z,21.2
2019-03-27T08:16:32.465Z,21.2
2019-03-27T08:17:22.222Z,21.2
2019-03-27T08:21:37.407Z,21.1
2019-03-27T08:22:22.825Z,21.1
2019-03-27T08:23:13.407Z,21.1
2019-03-27T08:24:04.031Z,21
2019-03-27T08:24:53.532Z,21
2019-03-27T08:25:43.357Z,21
2019-03-27T08:26:33.726Z,21
2019-03-27T08:27:23.972Z,21.1
2019-03-27T08:28:13.864Z,21.1
2019-03-27T08:29:53.907Z,21.2
2019-03-27T08:30:44.305Z,21.2
2019-03-27T08:31:33.736Z,21.3
2019-03-27T08:32:24.687Z,21.3
2019-03-27T08:33:14.687Z,21.3
2019-03-27T08:34:04.514Z,21.3
2019-03-27T08:34:54.531Z,21.3
2019-03-27T08:35:44.581Z,21.4
2019-03-27T08:36:35.054Z,21.3
2019-03-27T08:37:24.699Z,21.4
2019-03-27T08:38:17.980Z,21.4
2019-03-27T08:39:04.528Z,21.4
2019-03-27T08:39:54.422Z,21.4
2019-03-27T08:40:44.754Z,21.4
2019-03-27T08:41:35.280Z,21.4
2019-03-27T08:42:24.538Z,21.4
2019-03-27T08:43:31.807Z,21.3
2019-03-27T08:44:04.756Z,21.3
2019-03-27T08:44:55.287Z,21.4
2019-03-27T08:45:45.587Z,21.4
2019-03-27T08:46:35.476Z,21.3
2019-03-27T08:47:25.438Z,21.3
2019-03-27T08:48:14.698Z,21.3
2019-03-27T08:49:05.662Z,21.3
2019-03-27T08:50:10.539Z,21.3
2019-03-27T08:50:45.732Z,21.3
2019-03-27T08:51:35.737Z,21.3
2019-03-27T08:52:25.274Z,21.3
2019-03-27T08:53:16.125Z,21.3
2019-03-27T08:54:05.940Z,21.3
2019-03-27T08:54:56.279Z,21.3
2019-03-27T08:55:46.310Z,21.3
2019-03-27T08:56:36.104Z,21.2
2019-03-27T08:57:26.195Z,21.2
2019-03-27T08:58:16.252Z,21.2
2019-03-27T08:59:06.041Z,21.2
2019-03-27T09:04:05.891Z,21.1
2019-03-27T09:04:56.278Z,21.1
2019-03-27T09:05:46.275Z,21.1
2019-03-27T09:06:40.406Z,21.1
2019-03-27T09:07:26.169Z,21.1
2019-03-27T09:08:17.038Z,21.1
2019-03-27T09:09:21.678Z,21.1
2019-03-27T09:11:36.404Z,21.2
2019-03-27T09:12:27.268Z,21.3
2019-03-27T09:13:16.200Z,21.3
2019-03-27T09:14:07.648Z,21.3
2019-03-27T09:14:57.423Z,21.3
2019-03-27T09:15:47.507Z,21.4
2019-03-27T09:16:37.282Z,21.4
2019-03-27T09:17:27.573Z,21.4
2019-03-27T09:18:21.419Z,21.4
2019-03-27T09:19:08.000Z,21.4
2019-03-27T09:19:57.853Z,21.4
2019-03-27T09:20:47.583Z,21.4
2019-03-27T09:21:37.907Z,21.4
2019-03-27T09:22:27.992Z,21.4
2019-03-27T09:23:18.546Z,21.4
2019-03-27T09:24:08.141Z,21.4
2019-03-27T09:24:57.605Z,21.4
2019-03-27T09:25:47.930Z,21.3
2019-03-27T09:26:38.508Z,21.3
2019-03-27T09:27:42.942Z,21.3
2019-03-27T09:28:18.452Z,21.3
2019-03-27T09:29:11.528Z,21.3
2019-03-27T09:29:58.783Z,21.3
2019-03-27T09:30:49.288Z,21.3
2019-03-27T09:31:51.712Z,21.3
2019-03-27T09:32:28.672Z,21.3
2019-03-27T09:33:19.040Z,21.3
2019-03-27T09:34:08.530Z,21.3
2019-03-27T09:34:58.583Z,21.3
2019-03-27T09:35:49.786Z,21.3
2019-03-27T09:36:39.401Z,21.3
2019-03-27T09:37:29.325Z,21.3
2019-03-27T09:38:19.604Z,21.2
2019-03-27T09:39:08.889Z,21.2
2019-03-27T09:39:59.211Z,21.2
2019-03-27T09:40:48.718Z,21.2
2019-03-27T09:41:39.368Z,21.2
2019-03-27T09:49:10.145Z,21.1
2019-03-27T09:49:59.396Z,21.1
2019-03-27T09:52:30.151Z,21.2
2019-03-27T09:53:20.174Z,21.2
2019-03-27T09:54:10.276Z,21.2
2019-03-27T09:54:59.745Z,21.3
2019-03-27T09:55:49.833Z,21.3
2019-03-27T09:56:40.143Z,21.3
2019-03-27T09:57:30.703Z,21.3
2019-03-27T09:58:20.826Z,21.3
2019-03-27T09:59:12.510Z,21.3
2019-03-27T09:59:59.975Z,21.3
2019-03-27T10:00:51.456Z,21.3
2019-03-27T10:01:40.874Z,21.3
2019-03-27T10:02:30.822Z,21.3
2019-03-27T10:03:20.648Z,21.3
2019-03-27T10:04:10.691Z,21.3
2019-03-27T10:06:25.423Z,21.3
2019-03-27T10:07:15.304Z,21.3
2019-03-27T10:08:05.217Z,21.3
2019-03-27T10:08:54.801Z,21.3
2019-03-27T10:09:45.122Z,21.3
2019-03-27T10:10:35.783Z,21.3
2019-03-27T10:11:29.318Z,21.3
2019-03-27T10:12:14.956Z,21.2
2019-03-27T10:13:05.555Z,21.2
2019-03-27T10:13:55.080Z,21.2
2019-03-27T10:14:49.210Z,21.2
2019-03-27T10:15:34.950Z,21.2
2019-03-27T10:16:26.467Z,21.2
2019-03-27T10:17:15.950Z,21.2
2019-03-27T10:18:05.171Z,21.2
2019-03-27T10:18:56.342Z,21.2
2019-03-27T10:19:45.239Z,21.2
2019-03-27T10:20:36.400Z,21.2
2019-03-27T10:21:25.641Z,21.2
2019-03-27T10:23:06.677Z,21.2
2019-03-27T10:23:56.362Z,21.2
2019-03-27T10:28:56.727Z,21.1
2019-03-27T10:29:46.845Z,21.1
2019-03-27T10:30:36.044Z,21.1
2019-03-27T10:31:27.149Z,21.1
2019-03-27T10:32:17.231Z,21.1
2019-03-27T10:33:57.451Z,21.1
2019-03-27T10:43:57.508Z,21.2
2019-03-27T10:52:18.111Z,21.1
2019-03-27T10:53:08.700Z,21.1
2019-03-27T10:53:58.270Z,21.1
2019-03-27T10:54:48.559Z,21.1
2019-03-27T10:55:40.730Z,21.1
2019-03-27T10:56:28.150Z,21.1
2019-03-27T10:57:19.065Z,21
2019-03-27T10:58:09.094Z,21
2019-03-27T10:58:59.145Z,21
2019-03-27T10:59:48.940Z,21
2019-03-27T11:00:38.150Z,21
2019-03-27T11:01:29.346Z,21
2019-03-27T11:02:19.482Z,20.9
2019-03-27T11:03:08.939Z,20.9
2019-03-27T11:03:59.574Z,20.9
2019-03-27T11:04:49.371Z,21
2019-03-27T11:05:39.631Z,21
2019-03-27T11:06:29.490Z,21
2019-03-27T11:07:19.491Z,21
2019-03-27T11:08:13.327Z,21.1
2019-03-27T11:08:59.692Z,21.1
2019-03-27T11:13:09.924Z,21.2
2019-03-27T11:13:59.388Z,21.2
2019-03-27T11:14:49.441Z,21.2
2019-03-27T11:15:39.808Z,21.2
2019-03-27T11:16:29.399Z,21.2
2019-03-27T11:17:19.404Z,21.2
2019-03-27T11:18:09.995Z,21.2
2019-03-27T11:18:59.743Z,21.2
2019-03-27T11:19:50.112Z,21.2
2019-03-27T11:20:39.943Z,21.2
2019-03-27T11:21:30.772Z,21.2
2019-03-27T11:22:20.543Z,21.2
2019-03-27T11:23:10.610Z,21.2
2019-03-27T11:24:50.821Z,21.2
2019-03-27T11:25:40.858Z,21.2
2019-03-27T11:26:30.906Z,21.2
2019-03-27T11:29:00.748Z,21.2
2019-03-27T11:34:51.445Z,21.1
2019-03-27T11:35:41.042Z,21.1
2019-03-27T11:36:35.070Z,21.1
2019-03-27T11:37:20.340Z,21.1
2019-03-27T11:38:11.790Z,21.1
2019-03-27T11:39:00.934Z,21.1
2019-03-27T11:39:51.264Z,21.1
2019-03-27T11:40:42.009Z,21.1
2019-03-27T11:41:31.925Z,21.1
2019-03-27T11:42:21.310Z,21
2019-03-27T11:43:11.784Z,21
2019-03-27T11:44:02.442Z,21
2019-03-27T11:44:52.201Z,21
2019-03-27T11:45:41.149Z,21
2019-03-27T11:46:35.577Z,21
2019-03-27T11:47:22.180Z,21
2019-03-27T11:48:15.207Z,21
2019-03-27T11:49:02.527Z,21
2019-03-27T11:49:52.097Z,21
2019-03-27T11:50:52.167Z,21
2019-03-27T11:51:30.984Z,21
2019-03-27T11:52:22.214Z,21.1
2019-03-27T11:53:12.534Z,21.1
2019-03-27T11:57:23.409Z,21.2
2019-03-27T11:58:16.617Z,21.2
2019-03-27T12:00:58.796Z,21.2
2019-03-27T12:01:49.852Z,21.2
2019-03-27T12:04:03.839Z,21.2
2019-03-27T12:09:44.969Z,21.2
2019-03-27T12:15:35.694Z,21.1
2019-03-27T12:16:25.726Z,21.1
2019-03-27T12:17:16.060Z,21.1
2019-03-27T12:18:05.827Z,21.1
2019-03-27T12:18:55.908Z,21.1
2019-03-27T12:19:45.978Z,21.1
2019-03-27T12:20:36.066Z,21.1
2019-03-27T12:21:26.071Z,21.1
2019-03-27T12:22:16.146Z,21.1
2019-03-27T12:23:05.945Z,21
2019-03-27T12:23:56.598Z,21
2019-03-27T12:24:46.395Z,21
2019-03-27T12:25:35.841Z,21
2019-03-27T12:26:25.963Z,21
2019-03-27T12:27:16.210Z,21
2019-03-27T12:28:06.810Z,21
2019-03-27T12:28:56.916Z,20.9
2019-03-27T12:29:46.708Z,20.9
2019-03-27T12:30:36.552Z,20.9
2019-03-27T12:31:26.862Z,20.9
2019-03-27T12:32:17.163Z,20.9
2019-03-27T12:33:06.982Z,20.9
2019-03-27T12:33:57.006Z,20.9
2019-03-27T12:34:46.540Z,20.9
2019-03-27T12:35:37.387Z,20.9
2019-03-27T12:36:26.873Z,20.9
2019-03-27T12:37:17.225Z,20.9
2019-03-27T12:38:10.486Z,20.9
2019-03-27T12:38:56.816Z,20.9
2019-03-27T12:39:48.002Z,21
2019-03-27T12:40:37.727Z,21.1
2019-03-27T12:41:27.762Z,21.1
2019-03-27T12:43:57.406Z,21.2
2019-03-27T12:44:46.902Z,21.2
2019-03-27T12:45:37.329Z,21.2
2019-03-27T12:46:28.140Z,21.3
2019-03-27T12:47:18.258Z,21.3
2019-03-27T12:48:08.256Z,21.3
2019-03-27T12:48:57.869Z,21.2
2019-03-27T12:49:48.116Z,21.3
2019-03-27T12:50:37.894Z,21.2
2019-03-27T12:51:28.019Z,21.2
2019-03-27T12:52:18.278Z,21.2
2019-03-27T12:53:07.818Z,21.2
2019-03-27T12:53:58.676Z,21.2
2019-03-27T12:54:48.196Z,21.2